Time;durP1;ratioP1;P1;durP2;ratioP2;P2;SDS_P1;SDS_P2;PMS_P1;PMS_P2;Temp;Humidity;BMP_temperature;BMP_pressure;BME280_temperature;BME280_humidity;BME280_pressure;Samples;Min_cycle;Max_cycle;Signal;HPM_P1;HPM_P2
2022/11/24 00:00:27;;;;;;;10.80;5.65;;;;;;;0.00;64.64;99750.06;6083865;23;20021;-79
2022/11/24 00:02:53;;;;;;;10.80;5.97;;;;;;;-0.03;64.84;99732.91;6100681;23;20022;-85
2022/11/24 00:05:19;;;;;;;9.48;5.40;;;;;;;0.18;64.44;99780.50;6101447;23;20069;-82
2022/11/24 00:07:45;;;;;;;8.95;4.90;;;;;;;0.07;64.42;99759.66;6076911;23;20454;-80
2022/11/24 00:10:11;;;;;;;10.35;5.13;;;;;;;0.23;64.52;99791.75;6101135;23;20032;-82
2022/11/24 00:12:38;;;;;;;9.88;4.60;;;;;;;-0.05;64.93;99736.25;6052892;23;20022;-79
2022/11/24 00:15:05;;;;;;;9.38;4.55;;;;;;;-0.40;64.90;99677.09;6076492;23;20033;-80
2022/11/24 00:17:31;;;;;;;11.45;5.30;;;;;;;-0.07;64.19;99771.16;6126610;23;20054;-83
2022/11/24 00:19:57;;;;;;;10.18;5.50;;;;;;;-0.03;64.89;99768.72;6105072;23;20015;-81
2022/11/24 00:22:23;;;;;;;11.48;5.88;;;;;;;0.06;64.98;99777.56;6100767;23;20002;-81
2022/11/24 00:24:49;;;;;;;11.68;5.72;;;;;;;0.20;64.68;99806.16;6100808;23;20006;-82
2022/11/24 00:27:15;;;;;;;10.98;5.68;;;;;;;0.02;64.82;99776.56;6123263;23;20029;-79
2022/11/24 00:29:41;;;;;;;9.95;5.15;;;;;;;0.02;64.66;99783.38;6098016;23;20002;-81
2022/11/24 00:32:07;;;;;;;11.02;5.53;;;;;;;0.04;65.14;99789.41;6124122;23;20026;-80
2022/11/24 00:34:33;;;;;;;11.32;6.13;;;;;;;-0.19;64.02;99758.81;6114753;23;20018;-79
2022/11/24 00:36:59;;;;;;;12.90;7.28;;;;;;;0.00;64.88;99803.81;6052835;23;20109;-79
2022/11/24 00:39:25;;;;;;;13.48;7.55;;;;;;;-0.14;64.44;99775.19;6076248;23;20014;-80
2022/11/24 00:41:51;;;;;;;14.40;7.72;;;;;;;0.05;65.29;99811.63;6107566;23;20022;-81
2022/11/24 00:44:18;;;;;;;15.73;7.55;;;;;;;-0.07;64.93;99787.34;6106172;23;20019;-82
2022/11/24 00:46:44;;;;;;;13.25;6.85;;;;;;;0.00;65.57;99808.94;6075815;23;20589;-80
2022/11/24 00:49:10;;;;;;;12.00;6.60;;;;;;;0.08;64.76;99822.84;6101184;23;20018;-85
2022/11/24 00:51:37;;;;;;;12.05;7.05;;;;;;;0.01;64.99;99815.75;6101694;23;20018;-82
2022/11/24 00:54:05;;;;;;;13.35;6.13;;;;;;;-0.03;64.64;99813.94;6075120;23;20360;-83
2022/11/24 00:56:31;;;;;;;17.08;8.15;;;;;;;0.02;65.80;99832.00;6102530;23;20023;-81
2022/11/24 00:58:57;;;;;;;12.38;5.80;;;;;;;-0.24;64.95;99788.47;6081069;23;20154;-79
2022/11/24 01:01:25;;;;;;;11.48;5.45;;;;;;;-0.02;65.17;99834.44;6056372;23;20022;-80
2022/11/24 01:03:52;;;;;;;13.02;5.78;;;;;;;-0.35;65.61;99778.75;6106181;23;20043;-78
2022/11/24 01:06:21;;;;;;;10.95;5.75;;;;;;;-0.10;65.45;99817.94;6082290;23;20020;-80
2022/11/24 01:08:48;;;;;;;10.70;5.75;;;;;;;0.09;65.76;99833.97;6105041;23;20042;-80
2022/11/24 01:11:17;;;;;;;10.82;5.95;;;;;;;0.11;65.51;99828.06;6081912;23;20019;-82
2022/11/24 01:13:44;;;;;;;11.30;6.18;;;;;;;0.04;65.53;99818.41;6112352;23;20018;-78
2022/11/24 01:16:23;;;;;;;11.45;6.43;;;;;;;0.09;65.15;99834.81;6105676;23;20025;-81
2022/11/24 01:18:50;;;;;;;13.40;7.40;;;;;;;0.03;65.14;99834.59;6130621;23;20022;-79
2022/11/24 01:21:16;;;;;;;10.98;6.47;;;;;;;0.15;64.67;99862.28;6104993;23;20037;-80
2022/11/24 01:23:43;;;;;;;13.40;6.82;;;;;;;0.17;65.42;99858.09;6105303;23;20018;-78
2022/11/24 01:26:12;;;;;;;13.63;7.13;;;;;;;-0.51;65.05;99750.88;6105076;23;20030;-80
2022/11/24 01:28:38;;;;;;;11.85;6.32;;;;;;;-0.07;64.97;99838.53;6081163;23;20461;-82
2022/11/24 01:31:06;;;;;;;11.80;6.38;;;;;;;0.11;64.92;99860.47;6105997;23;20025;-79
2022/11/24 01:33:33;;;;;;;15.18;6.95;;;;;;;-0.04;65.53;99841.19;6106083;23;20082;-78
2022/11/24 01:36:00;;;;;;;12.40;6.35;;;;;;;-0.28;65.41;99797.72;6106561;23;20078;-78
2022/11/24 01:38:27;;;;;;;13.57;6.55;;;;;;;-0.09;64.80;99829.91;6084836;23;20457;-79
2022/11/24 01:41:06;;;;;;;12.50;6.40;;;;;;;0.10;65.12;99867.25;6108064;23;20421;-81
2022/11/24 01:43:33;;;;;;;9.57;5.13;;;;;;;0.12;64.49;99867.31;6107068;23;20028;-79
2022/11/24 01:46:18;;;;;;;12.65;5.68;;;;;;;0.03;64.70;99856.75;6063557;23;20497;-79
2022/11/24 01:48:51;;;;;;;10.85;5.40;;;;;;;0.08;64.56;99863.78;6087788;23;20018;-80
2022/11/24 01:51:27;;;;;;;10.10;5.32;;;;;;;-0.06;64.81;99831.72;6112569;23;20093;-79
2022/11/24 01:54:01;;;;;;;11.38;5.88;;;;;;;0.02;64.57;99861.00;6075673;23;20022;-79
2022/11/24 01:56:30;;;;;;;9.38;5.28;;;;;;;-0.16;64.22;99836.50;6075931;23;20405;-82
2022/11/24 01:59:01;;;;;;;12.43;6.38;;;;;;;0.04;64.99;99867.03;6077638;23;20139;-78
2022/11/24 02:01:28;;;;;;;11.60;5.57;;;;;;;0.09;64.66;99877.47;6097459;23;20018;-79
2022/11/24 02:03:55;;;;;;;8.70;4.93;;;;;;;0.03;64.34;99878.09;6085904;23;20246;-79
2022/11/24 02:06:26;;;;;;;10.00;5.28;;;;;;;0.02;64.57;99870.38;6075328;23;20018;-80
2022/11/24 02:09:08;;;;;;;11.75;5.80;;;;;;;-0.27;64.45;99830.16;6102019;23;20014;-82
2022/11/24 02:11:37;;;;;;;11.93;6.45;;;;;;;0.02;64.03;99888.28;6052030;23;20109;-82
2022/11/24 02:14:11;;;;;;;11.07;5.78;;;;;;;-0.04;64.00;99882.13;6101027;23;20388;-83
2022/11/24 02:16:40;;;;;;;9.73;5.38;;;;;;;-0.27;64.03;99849.75;6074642;23;20069;-81
2022/11/24 02:19:21;;;;;;;8.93;4.57;;;;;;;0.04;63.95;99895.19;6074702;23;20014;-83
2022/11/24 02:21:47;;;;;;;10.20;5.90;;;;;;;-0.01;63.70;99895.03;6098292;23;20018;-82
2022/11/24 02:24:34;;;;;;;11.13;4.90;;;;;;;0.03;63.79;99900.25;6076155;23;20018;-80
2022/11/24 02:26:59;;;;;;;11.40;5.95;;;;;;;-0.09;63.08;99885.34;6076429;23;20018;-79
2022/11/24 02:29:25;;;;;;;10.38;5.30;;;;;;;-0.03;63.78;99903.50;6059961;23;20445;-84
2022/11/24 02:31:56;;;;;;;9.43;4.88;;;;;;;-0.04;63.37;99909.41;6074896;23;20025;-80
2022/11/24 02:34:24;;;;;;;11.50;5.65;;;;;;;-0.14;64.21;99904.78;6075114;23;20073;-81
2022/11/24 02:36:50;;;;;;;9.13;4.65;;;;;;;0.00;62.82;99916.41;6123560;23;20018;-82
2022/11/24 02:39:16;;;;;;;11.52;5.35;;;;;;;-0.35;63.16;99875.03;6076838;23;20042;-83
2022/11/24 02:41:48;;;;;;;8.95;5.07;;;;;;;-0.18;63.28;99906.34;6075628;23;20398;-77
2022/11/24 02:44:18;;;;;;;10.32;4.90;;;;;;;-0.18;62.75;99911.47;6088213;23;20025;-82
2022/11/24 02:46:44;;;;;;;10.93;5.60;;;;;;;-0.24;62.90;99907.00;6123167;23;20082;-83
2022/11/24 02:49:10;;;;;;;12.38;5.88;;;;;;;-0.25;62.70;99910.38;6122907;23;20006;-81
2022/11/24 02:51:36;;;;;;;11.07;5.43;;;;;;;-0.23;63.48;99918.09;6122922;23;20081;-82
2022/11/24 02:54:02;;;;;;;11.00;5.50;;;;;;;-0.81;62.72;99849.50;6065786;23;20082;-85
2022/11/24 02:56:29;;;;;;;10.10;5.35;;;;;;;-0.58;63.07;99892.97;6104447;23;20480;-81
2022/11/24 02:58:56;;;;;;;12.35;6.00;;;;;;;-0.30;63.56;99919.56;6075139;23;20006;-82
2022/11/24 03:01:22;;;;;;;14.73;7.07;;;;;;;-0.32;62.95;99924.59;6100343;23;20022;-78
2022/11/24 03:03:49;;;;;;;10.85;5.60;;;;;;;-0.36;63.43;99915.09;6079133;23;20018;-81
2022/11/24 03:06:15;;;;;;;12.65;5.90;;;;;;;-0.28;63.58;99909.38;6102422;23;20089;-80
2022/11/24 03:08:42;;;;;;;13.82;6.00;;;;;;;-0.17;63.18;99926.00;6074376;23;20018;-82
2022/11/24 03:11:11;;;;;;;11.20;6.25;;;;;;;-0.36;62.26;99924.44;6075118;23;20072;-81
2022/11/24 03:13:36;;;;;;;12.35;6.10;;;;;;;-0.49;63.00;99900.09;6099109;23;20039;-81
2022/11/24 03:16:08;;;;;;;13.93;6.85;;;;;;;-0.46;63.76;99905.34;6077777;23;20022;-83
2022/11/24 03:18:34;;;;;;;12.32;6.30;;;;;;;-0.40;63.41;99918.34;6073936;23;20018;-83
2022/11/24 03:21:00;;;;;;;11.98;6.32;;;;;;;-0.35;62.92;99904.06;6074571;23;20045;-81
2022/11/24 03:23:26;;;;;;;12.60;6.15;;;;;;;-0.39;63.16;99904.75;6100156;23;20016;-79
2022/11/24 03:25:52;;;;;;;12.90;5.95;;;;;;;-0.52;63.29;99880.41;6099341;23;20038;-84
2022/11/24 03:28:19;;;;;;;14.05;6.93;;;;;;;-0.70;62.93;99857.59;6103173;23;20029;-80
2022/11/24 03:30:47;;;;;;;12.18;6.18;;;;;;;-0.20;63.30;99957.44;6120602;23;20014;-81
2022/11/24 03:33:13;;;;;;;12.07;6.18;;;;;;;-0.40;63.33;99892.78;6112444;23;20026;-81
2022/11/24 03:35:39;;;;;;;15.40;6.63;;;;;;;-0.09;63.75;99926.28;6050584;23;20027;-83
2022/11/24 03:38:06;;;;;;;12.02;6.13;;;;;;;-0.13;63.21;99940.66;6075643;23;20033;-81
2022/11/24 03:40:32;;;;;;;14.13;6.75;;;;;;;-0.46;62.70;99884.88;6102057;23;20049;-80
2022/11/24 03:42:59;;;;;;;13.57;6.72;;;;;;;-0.48;62.95;99889.06;6062952;23;20033;-79
2022/11/24 03:45:27;;;;;;;14.57;6.45;;;;;;;-0.28;63.40;99920.50;6123912;23;20019;-84
2022/11/24 03:47:55;;;;;;;12.35;6.15;;;;;;;-0.29;63.29;99913.63;6100878;23;20026;-81
2022/11/24 03:50:22;;;;;;;16.30;7.50;;;;;;;-0.08;63.59;99943.38;6100993;23;20018;-82
2022/11/24 03:52:50;;;;;;;16.20;8.15;;;;;;;-0.22;63.19;99930.94;6075898;23;20022;-81
2022/11/24 03:55:16;;;;;;;14.02;7.18;;;;;;;-0.87;63.05;99833.09;6077636;23;20046;-79
2022/11/24 03:57:42;;;;;;;12.45;6.40;;;;;;;-0.57;63.38;99876.81;6078240;23;20049;-83
2022/11/24 04:00:10;;;;;;;15.55;6.47;;;;;;;-0.16;62.80;99958.44;6102063;23;20101;-81
2022/11/24 04:02:37;;;;;;;13.80;7.82;;;;;;;-0.32;63.64;99932.28;6107407;23;20057;-78
2022/11/24 04:05:04;;;;;;;13.57;6.80;;;;;;;-0.46;63.09;99911.34;6111895;23;20101;-81
2022/11/24 04:07:30;;;;;;;14.90;6.68;;;;;;;-0.95;63.29;99833.66;6109242;23;20018;-80
2022/11/24 04:09:56;;;;;;;14.23;6.55;;;;;;;-0.42;63.49;99935.31;6108060;23;20029;-80
2022/11/24 04:15:07;;;;;;;15.18;6.43;;;;;;;-0.49;63.38;99928.22;6110554;23;20018;-82
2022/11/24 04:17:33;;;;;;;14.60;6.93;;;;;;;-0.46;63.90;99943.69;6087248;23;20022;-80
2022/11/24 04:19:59;;;;;;;15.48;7.13;;;;;;;-0.35;63.12;99957.78;6088470;23;20030;-80
2022/11/24 04:22:26;;;;;;;13.43;6.38;;;;;;;-0.50;63.20;99949.50;6064201;23;20018;-82
2022/11/24 04:24:52;;;;;;;13.60;7.13;;;;;;;-0.44;63.46;99970.19;6112547;23;20029;-79
2022/11/24 04:27:18;;;;;;;14.18;7.15;;;;;;;-0.41;63.85;99967.75;6086474;23;20018;-80
2022/11/24 04:29:44;;;;;;;15.98;6.55;;;;;;;-0.75;62.59;99930.66;6087482;23;20107;-83
2022/11/24 04:32:10;;;;;;;14.18;6.82;;;;;;;-0.74;63.96;99922.16;6086140;23;20018;-79
2022/11/24 04:34:36;;;;;;;13.25;6.60;;;;;;;-0.49;63.27;99982.81;6088614;23;20021;-80
2022/11/24 04:37:06;;;;;;;13.23;7.32;;;;;;;-0.56;62.79;99985.06;6116012;23;19998;-81
2022/11/24 04:39:32;;;;;;;13.48;7.00;;;;;;;-0.76;64.03;99960.47;6121493;23;20001;-80
2022/11/24 04:41:59;;;;;;;13.05;6.53;;;;;;;-0.80;63.24;99939.84;6099168;23;20018;-78
2022/11/24 04:44:25;;;;;;;14.70;7.43;;;;;;;-0.42;63.62;99983.91;6074006;23;20013;-82
2022/11/24 04:46:51;;;;;;;14.10;7.43;;;;;;;-0.62;63.07;99955.91;6123926;23;20080;-82
2022/11/24 04:49:17;;;;;;;16.00;7.70;;;;;;;-1.02;63.49;99898.13;6116231;23;20019;-82
2022/11/24 04:51:44;;;;;;;15.13;7.18;;;;;;;-0.45;63.08;99999.13;6057962;23;20085;-83
2022/11/24 04:54:11;;;;;;;14.35;6.90;;;;;;;-0.49;63.29;99985.38;6113981;23;20500;-81
2022/11/24 04:56:38;;;;;;;13.35;6.65;;;;;;;-0.32;63.96;99996.22;6083770;23;20022;-82
2022/11/24 04:59:04;;;;;;;14.35;6.90;;;;;;;-0.39;63.24;99978.03;6118025;23;20014;-80
2022/11/24 05:01:31;;;;;;;13.93;6.55;;;;;;;-0.55;63.58;99944.22;6122210;23;20042;-79
2022/11/24 05:03:57;;;;;;;13.02;6.38;;;;;;;-0.33;63.49;99981.69;6082340;23;20022;-80
2022/11/24 05:06:24;;;;;;;15.43;6.85;;;;;;;-0.11;62.92;100010.63;6101956;23;20019;-82
2022/11/24 05:08:51;;;;;;;13.45;7.28;;;;;;;-0.16;63.23;100002.78;6101118;23;20026;-80
2022/11/24 05:11:18;;;;;;;15.15;7.30;;;;;;;-0.23;63.46;99989.72;6063256;23;20030;-81
2022/11/24 05:13:44;;;;;;;13.55;7.30;;;;;;;-0.18;63.45;99994.19;6121318;23;20023;-84
2022/11/24 05:16:11;;;;;;;13.48;6.95;;;;;;;-0.10;62.41;100027.72;6097242;23;20047;-81
2022/11/24 05:18:40;;;;;;;12.52;6.88;;;;;;;-0.18;62.24;100035.13;6071627;23;20022;-82
2022/11/24 05:21:06;;;;;;;14.15;6.85;;;;;;;-0.95;62.98;99897.53;6104002;23;20018;-82
2022/11/24 05:23:34;;;;;;;12.45;6.75;;;;;;;-1.08;62.57;99880.00;6077145;23;20049;-81
2022/11/24 05:26:00;;;;;;;13.70;6.97;;;;;;;-0.66;62.39;99959.13;6076043;23;20097;-81
2022/11/24 05:28:27;;;;;;;13.52;6.65;;;;;;;-1.15;62.47;99857.56;6074894;23;20021;-80
2022/11/24 05:30:53;;;;;;;14.60;6.43;;;;;;;-0.56;62.52;99983.38;6051058;23;20338;-82
2022/11/24 05:33:21;;;;;;;14.27;7.18;;;;;;;-0.42;62.88;100001.81;6051937;23;20038;-83
2022/11/24 05:35:49;;;;;;;14.35;6.70;;;;;;;-0.03;62.68;100072.38;6100892;23;20078;-83
2022/11/24 05:38:16;;;;;;;13.10;6.40;;;;;;;-0.11;62.85;100054.13;6100471;23;20018;-79
2022/11/24 05:40:42;;;;;;;14.80;7.55;;;;;;;-0.44;62.42;100013.66;6075475;23;20033;-82
2022/11/24 05:43:15;;;;;;;27.17;13.63;;;;;;;-0.11;62.84;100066.91;6099294;23;20026;-80
2022/11/24 05:45:42;;;;;;;17.70;8.55;;;;;;;-0.29;62.72;100044.09;6099048;23;20015;-81
2022/11/24 05:48:14;;;;;;;16.00;7.30;;;;;;;-0.13;62.38;100053.22;6099918;23;20077;-83
2022/11/24 05:50:40;;;;;;;19.73;7.82;;;;;;;-0.20;62.12;100056.34;6074059;23;20149;-83
2022/11/24 05:53:12;;;;;;;13.27;6.47;;;;;;;-0.28;62.45;100052.59;6074910;23;20049;-84
2022/11/24 05:55:40;;;;;;;14.48;7.25;;;;;;;-0.11;62.21;100074.59;6049925;23;20014;-80
2022/11/24 05:58:09;;;;;;;16.98;7.57;;;;;;;-0.09;62.43;100075.53;6099607;23;20024;-82
2022/11/24 06:00:35;;;;;;;17.80;8.07;;;;;;;-0.34;62.28;100032.78;6076449;23;20029;-79
2022/11/24 06:03:03;;;;;;;15.82;7.70;;;;;;;-0.05;62.24;100081.66;6100552;23;20022;-80
2022/11/24 06:05:29;;;;;;;14.85;6.70;;;;;;;-0.41;62.40;100047.03;6076659;23;20401;-80
2022/11/24 06:07:57;;;;;;;14.95;7.03;;;;;;;-0.68;62.23;100017.00;6103208;23;20049;-80
2022/11/24 06:10:27;;;;;;;15.57;7.18;;;;;;;-0.19;61.97;100078.56;6082212;23;20015;-81
2022/11/24 06:12:54;;;;;;;17.60;8.02;;;;;;;-0.69;61.07;100025.47;6081407;23;20053;-83
2022/11/24 06:15:20;;;;;;;14.75;7.75;;;;;;;-0.11;62.02;100122.34;6075737;23;20061;-79
2022/11/24 06:17:57;;;;;;;17.55;8.38;;;;;;;-0.04;62.35;100122.66;6075222;23;20018;-81
2022/11/24 06:20:26;;;;;;;15.38;6.63;;;;;;;-0.63;62.15;100040.19;6051857;23;20018;-81
2022/11/24 06:22:52;;;;;;;12.68;7.22;;;;;;;-0.24;61.88;100090.28;6074903;23;20014;-81
2022/11/24 06:25:25;;;;;;;15.32;6.80;;;;;;;-0.10;61.87;100130.06;6099997;23;20022;-80
2022/11/24 06:27:51;;;;;;;17.42;7.82;;;;;;;-0.90;62.10;99992.28;6116103;23;20413;-82
2022/11/24 06:30:18;;;;;;;13.27;7.30;;;;;;;-0.31;61.89;100082.38;6122007;23;19998;-83
2022/11/24 06:32:45;;;;;;;14.02;7.22;;;;;;;-0.34;61.83;100058.38;6084844;23;20037;-81
2022/11/24 06:35:16;;;;;;;13.10;7.25;;;;;;;0.11;61.88;100149.66;6101633;23;20440;-82
2022/11/24 06:37:45;;;;;;;13.27;7.18;;;;;;;0.05;61.43;100128.94;6122727;23;20121;-80
2022/11/24 06:40:12;;;;;;;12.75;7.15;;;;;;;-0.38;61.49;100052.28;6075283;23;20037;-81
2022/11/24 06:42:41;;;;;;;16.05;7.90;;;;;;;-0.54;61.37;100030.31;6076393;23;20030;-81
2022/11/24 06:45:08;;;;;;;21.75;10.10;;;;;;;-0.43;61.86;100074.22;6101519;23;20109;-83
2022/11/24 06:47:37;;;;;;;20.92;9.18;;;;;;;-0.62;60.09;100052.16;6085187;23;20050;-80
2022/11/24 06:50:08;;;;;;;16.20;7.75;;;;;;;-0.32;61.48;100116.44;6102636;23;20030;-82
2022/11/24 06:52:36;;;;;;;16.00;7.72;;;;;;;-1.52;60.86;99911.44;6098940;23;20048;-83
2022/11/24 06:55:03;;;;;;;16.27;8.65;;;;;;;-0.88;61.22;100023.84;6098216;23;20029;-82
2022/11/24 06:57:30;;;;;;;24.55;11.40;;;;;;;-0.66;61.34;100078.41;6097685;23;20019;-80
2022/11/24 06:59:58;;;;;;;20.83;10.65;;;;;;;-1.01;61.14;100024.16;6027420;23;20014;-82
2022/11/24 07:02:25;;;;;;;18.33;8.93;;;;;;;-1.21;61.29;99993.56;6099564;23;20022;-83
2022/11/24 07:04:51;;;;;;;18.00;8.82;;;;;;;-1.46;61.78;99930.38;6076271;23;20029;-84
2022/11/24 07:07:25;;;;;;;20.35;9.38;;;;;;;-1.40;61.42;99963.81;6077595;23;20093;-82
2022/11/24 07:10:09;;;;;;;19.73;9.03;;;;;;;-1.28;61.09;99974.56;6075133;23;20018;-82
2022/11/24 07:12:51;;;;;;;16.73;7.60;;;;;;;-0.16;61.49;100156.28;6100106;23;20274;-81
2022/11/24 07:15:17;;;;;;;19.08;8.45;;;;;;;-0.07;61.47;100163.47;6075598;23;20464;-82
2022/11/24 07:17:46;;;;;;;22.10;8.90;;;;;;;-1.10;61.37;99994.00;6077938;23;20464;-82
2022/11/24 07:20:15;;;;;;;20.77;8.80;;;;;;;-0.32;60.49;100147.13;6081249;23;20094;-83
2022/11/24 07:22:47;;;;;;;18.73;7.90;;;;;;;-1.09;61.82;100006.81;6059363;23;20018;-82
2022/11/24 07:25:17;;;;;;;17.00;8.02;;;;;;;-0.82;61.77;100041.13;6088472;23;20049;-80
2022/11/24 07:27:46;;;;;;;20.35;8.65;;;;;;;-0.63;61.26;100071.75;6087164;23;20018;-82
2022/11/24 07:30:23;;;;;;;23.27;8.85;;;;;;;-1.29;60.78;99969.38;6090455;23;20054;-81
2022/11/24 07:33:01;;;;;;;19.70;9.02;;;;;;;-0.47;61.74;100103.91;6086769;23;20073;-82
2022/11/24 07:35:30;;;;;;;17.55;8.75;;;;;;;-1.43;60.58;99933.03;6065217;23;20066;-83
2022/11/24 07:37:58;;;;;;;18.08;8.50;;;;;;;-0.11;60.21;100148.78;6116235;23;20023;-81
2022/11/24 07:40:25;;;;;;;18.55;8.20;;;;;;;-0.79;60.67;100052.34;6098949;23;20010;-81
2022/11/24 07:42:52;;;;;;;17.67;8.75;;;;;;;-0.16;61.63;100153.72;6097710;23;20005;-83
2022/11/24 07:45:20;;;;;;;20.67;8.27;;;;;;;-0.84;61.56;100004.41;6091039;23;20023;-81
2022/11/24 07:47:46;;;;;;;19.70;9.05;;;;;;;-0.02;60.59;100161.97;6106506;23;20028;-83
2022/11/24 07:50:13;;;;;;;17.70;8.07;;;;;;;-0.50;61.13;100056.88;6103772;23;20014;-81
2022/11/24 07:52:47;;;;;;;23.02;9.50;;;;;;;-0.59;61.37;100025.84;6107097;23;20030;-81
2022/11/24 07:55:24;;;;;;;16.25;8.57;;;;;;;-0.71;60.70;100029.66;6103319;23;20352;-81
2022/11/24 07:57:53;;;;;;;21.48;10.10;;;;;;;-0.34;60.74;100124.84;6093766;23;20005;-81
2022/11/24 08:00:20;;;;;;;19.60;8.80;;;;;;;-0.06;61.45;100143.88;6065988;23;20022;-79
2022/11/24 08:02:47;;;;;;;17.60;8.55;;;;;;;-1.12;60.07;99963.28;6077093;23;20090;-79
2022/11/24 08:05:13;;;;;;;19.60;9.57;;;;;;;-0.24;60.56;100119.31;6076978;23;20033;-81
2022/11/24 08:07:49;;;;;;;19.13;9.32;;;;;;;-1.01;60.81;99948.41;6076941;23;20042;-81
2022/11/24 08:10:16;;;;;;;17.40;8.93;;;;;;;0.24;59.93;100182.59;6125209;23;20461;-82
2022/11/24 08:12:43;;;;;;;19.58;8.88;;;;;;;-0.71;60.39;100037.31;6052179;23;20068;-81
2022/11/24 08:15:12;;;;;;;18.23;8.98;;;;;;;-0.24;59.13;100139.78;6055325;23;20158;-81
2022/11/24 08:17:45;;;;;;;18.05;8.95;;;;;;;-1.48;59.92;99968.59;6054533;23;20018;-82
2022/11/24 08:20:12;;;;;;;17.52;8.68;;;;;;;-0.82;60.82;100069.25;6101785;23;20073;-80
2022/11/24 08:22:41;;;;;;;20.23;9.60;;;;;;;-0.57;61.10;100141.84;6054308;23;20111;-81
2022/11/24 08:25:08;;;;;;;16.17;7.72;;;;;;;-0.47;60.64;100152.50;6063891;23;20050;-81
2022/11/24 08:27:34;;;;;;;15.32;8.18;;;;;;;-0.65;60.61;100098.03;6112282;23;20077;-80
2022/11/24 08:30:05;;;;;;;16.92;8.20;;;;;;;-0.23;60.44;100150.88;6088817;23;20058;-80
2022/11/24 08:32:34;;;;;;;19.50;8.43;;;;;;;-0.06;59.53;100206.16;6114173;23;20026;-79
2022/11/24 08:35:02;;;;;;;17.23;8.77;;;;;;;-1.08;60.29;100053.69;6133248;23;20018;-80
2022/11/24 08:37:29;;;;;;;15.55;8.05;;;;;;;-0.81;59.81;100086.31;6089064;23;20025;-78
2022/11/24 08:39:58;;;;;;;17.58;8.25;;;;;;;-0.21;60.62;100178.25;6117061;23;20397;-82
2022/11/24 08:42:28;;;;;;;16.90;8.15;;;;;;;0.22;60.58;100208.97;6107376;23;20018;-80
2022/11/24 08:44:58;;;;;;;15.00;7.80;;;;;;;0.06;60.49;100169.09;6063185;23;20006;-83
2022/11/24 08:47:36;;;;;;;15.18;8.00;;;;;;;-0.27;60.05;100121.75;6113086;23;20018;-81
2022/11/24 08:50:06;;;;;;;19.10;8.73;;;;;;;-0.29;60.40;100113.13;6109208;23;20039;-82
2022/11/24 08:52:33;;;;;;;18.67;8.55;;;;;;;0.00;60.14;100146.69;6080966;23;20010;-80
2022/11/24 08:54:59;;;;;;;16.70;8.07;;;;;;;0.29;59.43;100201.59;6082557;23;20097;-80
2022/11/24 08:57:30;;;;;;;19.02;8.88;;;;;;;0.44;60.64;100239.69;6085965;23;20020;-82
2022/11/24 08:59:58;;;;;;;17.63;7.88;;;;;;;0.48;59.76;100229.56;6059605;23;20014;-84
2022/11/24 09:02:25;;;;;;;23.00;10.57;;;;;;;-0.16;60.14;100120.47;6100604;23;20041;-81
2022/11/24 09:04:57;;;;;;;18.73;9.60;;;;;;;-0.25;59.94;100098.78;6102129;23;20018;-82
2022/11/24 09:07:23;;;;;;;19.75;8.93;;;;;;;-0.66;59.04;100056.28;6102169;23;20018;-82
2022/11/24 09:09:50;;;;;;;20.52;9.27;;;;;;;-0.49;59.15;100079.97;6101266;23;20038;-81
2022/11/24 09:12:16;;;;;;;19.13;8.38;;;;;;;-0.32;60.03;100082.31;6078338;23;20018;-80
2022/11/24 09:14:43;;;;;;;17.40;8.80;;;;;;;0.23;59.49;100172.28;6076874;23;20365;-82
2022/11/24 09:17:10;;;;;;;17.70;8.18;;;;;;;-0.20;60.00;100095.56;6077554;23;20416;-81
2022/11/24 09:19:36;;;;;;;17.90;8.23;;;;;;;0.65;59.52;100227.66;6100226;23;20018;-82
2022/11/24 09:22:05;;;;;;;16.42;7.65;;;;;;;0.76;59.52;100249.47;6105175;23;20046;-80
2022/11/24 09:24:32;;;;;;;20.15;8.93;;;;;;;0.54;59.42;100184.59;6081093;23;20045;-83
2022/11/24 09:27:01;;;;;;;16.90;8.82;;;;;;;0.43;58.73;100198.66;6074009;23;20082;-82
2022/11/24 09:29:36;;;;;;;17.02;8.27;;;;;;;0.65;58.92;100245.59;6093404;23;20018;-80
2022/11/24 09:32:05;;;;;;;15.65;8.95;;;;;;;0.57;58.78;100237.63;6058290;23;20026;-85
2022/11/24 09:34:31;;;;;;;16.58;8.52;;;;;;;0.25;58.73;100180.91;6032944;23;20109;-83
2022/11/24 09:37:00;;;;;;;17.60;8.63;;;;;;;-0.20;58.90;100099.84;6055701;23;20046;-81
2022/11/24 09:39:26;;;;;;;18.75;9.02;;;;;;;-0.75;58.00;100015.00;6088269;23;20453;-81
2022/11/24 09:42:14;;;;;;;16.67;8.60;;;;;;;0.20;58.61;100161.94;6080817;23;20018;-82
2022/11/24 09:44:59;;;;;;;15.00;7.97;;;;;;;0.69;58.96;100237.22;6089493;23;20099;-83
2022/11/24 09:47:43;;;;;;;14.77;7.80;;;;;;;0.57;58.37;100238.47;6105166;23;20038;-83
2022/11/24 09:50:25;;;;;;;14.90;7.97;;;;;;;-0.76;57.62;100019.25;6053908;23;20350;-82
2022/11/24 09:53:17;;;;;;;19.30;10.57;;;;;;;0.40;57.67;100248.09;6078971;23;20026;-84
2022/11/24 09:55:57;;;;;;;17.98;9.25;;;;;;;-1.21;58.21;100009.72;6110195;23;20535;-82
2022/11/24 09:58:35;;;;;;;18.23;9.32;;;;;;;0.20;58.65;100249.84;6058752;23;20046;-82
2022/11/24 10:01:15;;;;;;;15.88;7.70;;;;;;;0.27;58.18;100233.03;6082948;23;20014;-83
2022/11/24 10:03:52;;;;;;;16.10;7.75;;;;;;;-0.26;58.65;100137.97;6101009;23;20022;-82
2022/11/24 10:06:29;;;;;;;19.30;9.25;;;;;;;0.06;58.24;100218.56;6099291;23;20038;-82
2022/11/24 10:09:14;;;;;;;19.33;8.93;;;;;;;0.34;58.38;100245.28;6072912;23;20022;-81
2022/11/24 10:11:52;;;;;;;17.60;8.25;;;;;;;-0.78;58.48;100056.66;6064070;23;20050;-83
2022/11/24 10:15:01;;;;;;;15.73;8.23;;;;;;;-0.83;58.52;100047.91;6114363;23;20032;-83
2022/11/24 10:18:09;;;;;;;19.35;9.38;;;;;;;0.35;58.22;100262.38;6109353;23;20089;-81
2022/11/24 10:21:21;;;;;;;16.20;8.27;;;;;;;0.49;58.61;100260.38;6120160;23;20018;-82
2022/11/24 10:24:21;;;;;;;16.48;8.32;;;;;;;0.40;57.92;100263.44;6096106;23;20108;-82
2022/11/24 10:26:55;;;;;;;;;;;;;;;0.35;57.54;100261.50;6097138;23;20077;-82
2022/11/24 10:29:30;;;;;;;19.45;9.95;;;;;;;-0.22;58.08;100162.84;6121982;23;19954;-82
2022/11/24 10:32:04;;;;;;;22.60;10.57;;;;;;;-1.12;58.38;100026.25;6096877;23;20033;-84
2022/11/24 10:34:51;;;;;;;26.33;11.20;;;;;;;0.20;57.47;100262.63;6096885;23;20562;-81
2022/11/24 10:37:44;;;;;;;23.63;11.23;;;;;;;0.20;57.96;100264.34;6120890;23;20014;-84
2022/11/24 10:40:53;;;;;;;44.42;17.65;;;;;;;-0.51;58.58;100131.84;6096824;23;20078;-79
2022/11/24 10:43:23;;;;;;;24.45;11.82;;;;;;;-0.57;57.70;100131.59;6090310;23;20021;-79
2022/11/24 10:46:09;;;;;;;21.83;10.18;;;;;;;-0.24;57.92;100202.84;6064029;23;20025;-80
2022/11/24 10:48:50;;;;;;;20.48;9.35;;;;;;;-0.28;58.16;100193.28;6112136;23;20030;-83
2022/11/24 10:51:47;;;;;;;19.15;9.30;;;;;;;0.24;58.08;100263.63;6060203;23;20046;-83
2022/11/24 10:55:32;;;;;;;;;;;;;;;;;;;;;
2022/11/24 10:58:32;;;;;;;18.60;9.73;;;;;;;-1.01;57.93;100060.81;6023709;23;20015;-80
2022/11/24 11:01:12;;;;;;;21.70;11.38;;;;;;;-0.11;57.64;100210.19;6026189;23;20022;-83
2022/11/24 11:04:00;;;;;;;23.80;11.20;;;;;;;-1.03;58.14;100067.53;6050258;23;20034;-81
2022/11/24 11:07:30;;;;;;;;;;;;;;;;;;;;;
2022/11/24 11:10:40;;;;;;;18.58;9.80;;;;;;;-0.67;57.87;100138.88;6086284;23;20025;-82
2022/11/24 11:13:30;;;;;;;21.13;10.13;;;;;;;0.15;58.00;100282.06;6105305;23;20341;-84
2022/11/24 11:15:57;;;;;;;23.83;10.07;;;;;;;-1.08;58.30;100085.19;6104854;23;20022;-82
2022/11/24 11:18:32;;;;;;;23.35;10.23;;;;;;;-0.67;58.13;100141.44;6081429;23;20018;-81
2022/11/24 11:21:13;;;;;;;19.75;9.60;;;;;;;-1.45;58.27;100047.88;6098334;23;20016;-81
2022/11/24 11:24:02;;;;;;;24.02;10.20;;;;;;;-0.19;57.97;100244.84;6098253;23;20085;-84
2022/11/24 11:26:38;;;;;;;20.27;9.35;;;;;;;-0.74;57.96;100154.75;6082552;23;20398;-85
2022/11/24 11:29:15;;;;;;;18.95;9.50;;;;;;;0.12;57.98;100293.03;6106394;23;20014;-83
2022/11/24 11:32:15;;;;;;;22.75;9.40;;;;;;;-0.34;58.46;100230.63;6104585;23;20433;-83
2022/11/24 11:34:44;;;;;;;20.63;9.13;;;;;;;-0.69;57.79;100193.31;6102317;23;20070;-83
2022/11/24 11:37:13;;;;;;;17.75;8.18;;;;;;;-0.35;58.07;100225.41;6056870;23;20046;-84
2022/11/24 11:39:46;;;;;;;19.60;8.27;;;;;;;-1.50;57.95;100048.47;6080532;23;20010;-84
2022/11/24 11:42:44;;;;;;;20.90;9.38;;;;;;;-0.10;58.27;100285.28;6059287;23;20460;-82
2022/11/24 11:45:23;;;;;;;16.70;8.75;;;;;;;-0.31;58.41;100251.19;6104286;23;20152;-84
2022/11/24 11:48:31;;;;;;;19.30;9.68;;;;;;;-0.21;57.69;100262.66;6106542;23;20021;-80